createdAt,value
2022-11-22T00:02:11.570Z,16.63
2022-11-22T00:04:38.578Z,16.23
2022-11-22T00:07:05.896Z,15.77
2022-11-22T00:09:34.251Z,15.85
2022-11-22T00:12:01.400Z,15.88
2022-11-22T00:14:29.353Z,15.80
2022-11-22T00:16:56.617Z,16.33
2022-11-22T00:19:24.383Z,15.02
2022-11-22T00:21:51.469Z,15.38
2022-11-22T00:24:18.642Z,15.05
2022-11-22T00:26:45.873Z,15.02
2022-11-22T00:29:14.976Z,14.93
2022-11-22T00:31:42.136Z,14.77
2022-11-22T00:34:09.389Z,14.07
2022-11-22T00:36:36.538Z,14.30
2022-11-22T00:39:03.902Z,14.15
2022-11-22T00:41:31.010Z,13.68
2022-11-22T00:43:58.289Z,13.85
2022-11-22T00:46:25.863Z,13.88
2022-11-22T00:48:52.781Z,13.68
2022-11-22T00:51:19.842Z,14.18
2022-11-22T00:53:46.983Z,13.25
2022-11-22T00:56:14.024Z,13.20
2022-11-22T00:58:41.034Z,14.02
2022-11-22T01:01:08.231Z,13.43
2022-11-22T01:03:38.462Z,13.10
2022-11-22T01:06:05.720Z,13.57
2022-11-22T01:08:32.972Z,13.27
2022-11-22T01:11:02.180Z,12.48
2022-11-22T01:13:30.147Z,12.68
2022-11-22T01:16:07.412Z,13.18
2022-11-22T01:18:36.876Z,12.35
2022-11-22T01:21:04.883Z,12.32
2022-11-22T01:23:33.213Z,13.27
2022-11-22T01:26:00.399Z,12.82
2022-11-22T01:28:28.133Z,13.00
2022-11-22T01:30:58.832Z,12.43
2022-11-22T01:33:26.919Z,12.07
2022-11-22T01:35:58.484Z,12.05
2022-11-22T01:38:28.581Z,11.95
2022-11-22T01:40:55.858Z,12.40
2022-11-22T01:43:27.963Z,12.10
2022-11-22T01:46:01.892Z,11.77
2022-11-22T01:48:31.724Z,11.80
2022-11-22T01:51:21.878Z,12.13
2022-11-22T01:53:50.054Z,11.82
2022-11-22T01:56:21.482Z,11.43
2022-11-22T01:58:53.733Z,12.15
2022-11-22T02:01:21.340Z,12.00
2022-11-22T02:03:51.212Z,11.63
2022-11-22T02:06:20.391Z,12.15
2022-11-22T02:09:00.316Z,11.57
2022-11-22T02:11:34.353Z,11.10
2022-11-22T02:14:05.439Z,11.45
2022-11-22T02:16:34.805Z,11.25
2022-11-22T02:19:02.865Z,11.10
2022-11-22T02:21:30.610Z,11.50
2022-11-22T02:24:17.069Z,11.77
2022-11-22T02:26:44.253Z,11.85
2022-11-22T02:29:13.670Z,11.82
2022-11-22T02:31:44.261Z,11.57
2022-11-22T02:34:14.755Z,11.65
2022-11-22T02:36:46.329Z,12.00
2022-11-22T02:39:16.321Z,11.37
2022-11-22T02:41:44.494Z,11.77
2022-11-22T02:44:12.511Z,12.40
2022-11-22T02:46:51.257Z,12.40
2022-11-22T02:49:20.309Z,12.27
2022-11-22T02:51:47.236Z,12.50
2022-11-22T02:54:17.308Z,12.93
2022-11-22T02:56:44.247Z,12.67
2022-11-22T02:59:11.280Z,12.45
2022-11-22T03:01:38.437Z,12.65
2022-11-22T03:04:05.669Z,12.50
2022-11-22T03:06:32.586Z,12.60
2022-11-22T03:08:59.460Z,12.07
2022-11-22T03:11:26.606Z,12.32
2022-11-22T03:13:53.530Z,13.13
2022-11-22T03:16:20.614Z,12.88
2022-11-22T03:18:47.448Z,13.10
2022-11-22T03:21:14.350Z,12.55
2022-11-22T03:23:41.289Z,12.80
2022-11-22T03:26:10.167Z,12.70
2022-11-22T03:28:37.128Z,12.30
2022-11-22T03:31:08.176Z,12.48
2022-11-22T03:33:36.013Z,11.83
2022-11-22T03:36:03.577Z,12.32
2022-11-22T03:38:30.718Z,12.33
2022-11-22T03:40:57.826Z,11.70
2022-11-22T03:43:24.717Z,12.10
2022-11-22T03:45:51.844Z,12.47
2022-11-22T03:48:19.040Z,12.43
2022-11-22T03:50:46.226Z,12.57
2022-11-22T03:53:13.534Z,11.82
2022-11-22T03:55:40.525Z,11.13
2022-11-22T03:58:07.700Z,12.00
2022-11-22T04:00:35.047Z,11.68
2022-11-22T04:03:01.966Z,11.13
2022-11-22T04:05:28.819Z,11.65
2022-11-22T04:07:58.622Z,11.88
2022-11-22T04:10:26.045Z,12.57
2022-11-22T04:12:57.536Z,11.88
2022-11-22T04:15:25.271Z,11.85
2022-11-22T04:17:52.433Z,11.68
2022-11-22T04:20:40.874Z,11.90
2022-11-22T04:23:16.096Z,12.35
2022-11-22T04:25:45.717Z,11.20
2022-11-22T04:28:14.892Z,11.07
2022-11-22T04:31:02.075Z,11.30
2022-11-22T04:33:29.400Z,12.05
2022-11-22T04:35:56.514Z,11.68
2022-11-22T04:38:23.878Z,11.90
2022-11-22T04:40:50.703Z,12.40
2022-11-22T04:43:45.399Z,12.80
2022-11-22T04:46:13.797Z,12.60
2022-11-22T04:48:40.934Z,12.10
2022-11-22T04:51:26.936Z,11.65
2022-11-22T04:53:53.849Z,12.00
2022-11-22T04:56:20.917Z,11.70
2022-11-22T04:58:51.573Z,12.38
2022-11-22T05:01:18.647Z,12.52
2022-11-22T05:03:45.740Z,12.55
2022-11-22T05:06:14.061Z,12.40
2022-11-22T05:08:41.331Z,13.05
2022-11-22T05:11:08.199Z,12.80
2022-11-22T05:13:41.091Z,12.57
2022-11-22T05:16:11.048Z,12.73
2022-11-22T05:18:38.563Z,12.38
2022-11-22T05:21:14.412Z,11.90
2022-11-22T05:23:56.800Z,11.68
2022-11-22T05:26:35.266Z,11.77
2022-11-22T05:29:10.394Z,11.45
2022-11-22T05:31:39.314Z,11.65
2022-11-22T05:34:06.488Z,12.30
2022-11-22T05:36:34.713Z,12.15
2022-11-22T05:39:03.818Z,11.75
2022-11-22T05:41:31.272Z,11.15
2022-11-22T05:43:58.972Z,12.07
2022-11-22T05:46:28.763Z,12.73
2022-11-22T05:48:57.218Z,12.38
2022-11-22T05:51:33.596Z,12.95
2022-11-22T05:54:01.180Z,12.82
2022-11-22T05:56:28.010Z,13.10
2022-11-22T05:58:55.386Z,13.45
2022-11-22T06:01:24.058Z,13.52
2022-11-22T06:03:51.918Z,12.95
2022-11-22T06:06:19.891Z,14.07
2022-11-22T06:08:48.599Z,13.25
2022-11-22T06:11:17.543Z,12.50
2022-11-22T06:13:45.843Z,13.00
2022-11-22T06:16:13.624Z,12.25
2022-11-22T06:18:40.618Z,12.23
2022-11-22T06:21:13.628Z,12.80
2022-11-22T06:23:41.135Z,12.85
2022-11-22T06:26:11.032Z,12.88
2022-11-22T06:28:39.502Z,12.63
2022-11-22T06:31:18.702Z,12.20
2022-11-22T06:33:46.424Z,13.52
2022-11-22T06:36:16.171Z,12.60
2022-11-22T06:38:44.492Z,13.38
2022-11-22T06:41:14.498Z,13.20
2022-11-22T06:43:48.240Z,13.48
2022-11-22T06:46:20.277Z,13.93
2022-11-22T06:48:47.883Z,13.63
2022-11-22T06:51:23.162Z,13.90
2022-11-22T06:53:51.334Z,14.67
2022-11-22T06:56:21.032Z,14.20
2022-11-22T06:58:49.516Z,14.45
2022-11-22T07:01:28.031Z,14.15
2022-11-22T07:03:58.642Z,15.57
2022-11-22T07:06:28.324Z,15.45
2022-11-22T07:08:55.736Z,16.73
2022-11-22T07:11:28.079Z,17.13
2022-11-22T07:13:59.125Z,16.35
2022-11-22T07:16:30.895Z,15.50
2022-11-22T07:19:00.585Z,16.85
2022-11-22T07:21:28.007Z,15.35
2022-11-22T07:23:55.849Z,15.32
2022-11-22T07:26:24.482Z,15.77
2022-11-22T07:28:51.628Z,16.15
2022-11-22T07:31:19.226Z,15.57
2022-11-22T07:33:46.481Z,17.88
2022-11-22T07:36:14.779Z,16.88
2022-11-22T07:38:42.105Z,17.60
2022-11-22T07:43:53.184Z,17.83
2022-11-22T07:46:31.941Z,18.60
2022-11-22T07:49:00.872Z,18.15
2022-11-22T07:51:28.140Z,16.83
2022-11-22T07:53:56.127Z,16.38
2022-11-22T07:56:23.351Z,19.00
2022-11-22T07:58:50.244Z,17.33
2022-11-22T08:01:19.002Z,16.38
2022-11-22T08:03:49.369Z,16.90
2022-11-22T08:06:16.728Z,16.15
2022-11-22T08:08:44.382Z,15.38
2022-11-22T08:11:11.966Z,15.02
2022-11-22T08:13:39.420Z,14.20
2022-11-22T08:16:12.633Z,15.07
2022-11-22T08:18:41.471Z,15.48
2022-11-22T08:21:11.332Z,14.82
2022-11-22T08:23:39.404Z,13.97
2022-11-22T08:26:08.719Z,13.88
2022-11-22T08:28:36.321Z,13.73
2022-11-22T08:31:15.993Z,12.88
2022-11-22T08:33:42.912Z,13.15
2022-11-22T08:36:09.954Z,13.57
2022-11-22T08:38:36.913Z,13.10
2022-11-22T09:05:15.739Z,10.70
2022-11-22T09:13:22.193Z,8.48
2022-11-22T09:15:51.060Z,7.93
2022-11-22T09:23:48.314Z,6.77
2022-11-22T09:26:24.902Z,6.72
2022-11-22T09:28:53.966Z,6.85
2022-11-22T09:31:23.432Z,6.60
2022-11-22T09:33:51.819Z,6.60
2022-11-22T09:36:24.342Z,6.50
2022-11-22T09:38:54.249Z,5.80
2022-11-22T09:41:47.175Z,5.60
2022-11-22T09:47:38.332Z,4.95
2022-11-22T09:54:09.274Z,4.80
2022-11-22T09:56:40.383Z,4.75
2022-11-22T09:59:21.781Z,4.70
2022-11-22T10:02:18.117Z,3.57
2022-11-22T10:05:04.163Z,4.85
2022-11-22T10:08:06.556Z,3.70
2022-11-22T10:10:48.472Z,3.40
2022-11-22T10:13:25.104Z,3.50
2022-11-22T10:16:29.121Z,3.83
2022-11-22T10:19:47.380Z,3.30
2022-11-22T10:22:17.107Z,3.33
2022-11-22T10:24:50.484Z,3.00
2022-11-22T10:27:18.998Z,3.47
2022-11-22T10:30:00.609Z,2.70
2022-11-22T10:32:45.908Z,3.33
2022-11-22T10:35:42.070Z,3.00
2022-11-22T10:38:42.865Z,2.83
2022-11-22T10:41:48.498Z,3.23
2022-11-22T10:44:32.724Z,2.83
2022-11-22T10:47:29.129Z,2.33
2022-11-22T10:52:51.904Z,2.50
2022-11-22T10:55:34.162Z,3.00
2022-11-22T10:58:39.646Z,2.70
2022-11-22T11:01:28.671Z,3.47
2022-11-22T11:04:01.835Z,3.70
2022-11-22T11:07:17.193Z,2.00
2022-11-22T11:13:02.964Z,2.80
2022-11-22T11:19:23.882Z,2.53
2022-11-22T11:22:11.061Z,2.03
2022-11-22T11:24:42.513Z,2.97
2022-11-22T11:27:14.779Z,2.40
2022-11-22T11:29:44.437Z,2.20
2022-11-22T11:35:11.112Z,2.30
2022-11-22T11:37:47.589Z,2.30
2022-11-22T11:40:31.520Z,2.40
2022-11-22T11:43:27.771Z,2.50
2022-11-22T12:38:07.258Z,1.93
2022-11-22T12:40:46.227Z,1.87
2022-11-22T12:43:46.061Z,2.00
2022-11-22T12:46:26.413Z,2.07
2022-11-22T12:49:02.818Z,1.73
2022-11-22T12:51:39.332Z,1.80
2022-11-22T12:54:15.131Z,1.90
2022-11-22T12:56:51.583Z,2.23
2022-11-22T12:59:48.799Z,2.33
2022-11-22T13:02:57.421Z,2.23
2022-11-22T13:09:01.927Z,1.83
2022-11-22T13:12:15.927Z,2.20
2022-11-22T13:14:49.466Z,2.33
2022-11-22T13:17:23.984Z,2.40
2022-11-22T13:24:01.846Z,2.57
2022-11-22T13:27:00.469Z,2.50
2022-11-22T13:29:39.304Z,2.20
2022-11-22T13:32:13.245Z,2.13
2022-11-22T13:35:04.202Z,2.10
2022-11-22T13:40:33.722Z,1.90
2022-11-22T13:43:21.875Z,2.00
2022-11-22T13:46:00.978Z,2.03
2022-11-22T13:48:40.423Z,2.07
2022-11-22T13:51:12.887Z,2.20
2022-11-22T13:53:50.095Z,2.40
2022-11-22T13:56:17.314Z,2.40
2022-11-22T13:59:13.702Z,2.40
2022-11-22T14:01:41.222Z,1.90
2022-11-22T14:04:22.235Z,2.63
2022-11-22T14:07:26.609Z,2.47
2022-11-22T14:10:00.516Z,2.37
2022-11-22T14:13:10.798Z,2.03
2022-11-22T14:15:57.058Z,2.33
2022-11-22T14:18:52.807Z,2.17
2022-11-22T14:21:47.973Z,1.80
2022-11-22T14:24:27.856Z,2.17
2022-11-22T14:27:27.889Z,2.00
2022-11-22T14:30:07.745Z,1.90
2022-11-22T14:33:01.720Z,2.40
2022-11-22T14:35:40.444Z,1.87
2022-11-22T14:38:28.385Z,1.90
2022-11-22T14:41:28.364Z,1.70
2022-11-22T14:44:22.051Z,2.53
2022-11-22T14:47:04.524Z,2.20
2022-11-22T14:49:48.916Z,2.10
2022-11-22T14:52:29.267Z,2.07
2022-11-22T14:55:10.034Z,2.80
2022-11-22T14:57:38.698Z,3.00
2022-11-22T15:00:21.244Z,1.87
2022-11-22T15:03:36.759Z,1.60
2022-11-22T15:09:15.083Z,1.83
2022-11-22T15:09:48.724Z,1.90
2022-11-22T15:12:54.447Z,1.87
2022-11-22T15:58:13.773Z,3.90
2022-11-22T16:00:44.827Z,2.77
2022-11-22T16:03:26.524Z,2.20
2022-11-22T16:06:09.193Z,2.23
2022-11-22T16:08:48.622Z,2.10
2022-11-22T16:11:27.903Z,5.03
2022-11-22T16:13:55.344Z,3.40
2022-11-22T16:16:33.644Z,3.10
2022-11-22T16:19:23.879Z,3.23
2022-11-22T16:21:57.649Z,4.30
2022-11-22T16:24:32.504Z,2.97
2022-11-22T16:27:12.050Z,2.63
2022-11-22T16:29:57.580Z,2.27
2022-11-22T16:32:24.959Z,2.53
2022-11-22T16:35:27.421Z,2.47
2022-11-22T16:37:49.409Z,2.43
2022-11-22T16:43:09.569Z,2.00
2022-11-22T16:49:22.642Z,2.70
2022-11-22T16:52:13.589Z,2.30
2022-11-22T17:07:07.916Z,2.00
2022-11-22T17:12:34.041Z,2.10
2022-11-22T17:15:05.877Z,2.40
2022-11-22T17:17:34.556Z,1.90
2022-11-22T17:20:03.771Z,2.00
2022-11-22T17:22:33.904Z,2.27
2022-11-22T17:25:09.284Z,2.30
